sensor_id;sensor_type;location;lat;lon;timestamp;P1;durP1;ratioP1;P2;durP2;ratioP2
21626;SDS011;10975;47.872;12.972;2024-02-26T00:00:12;11.15;;;10.23;;
21626;SDS011;10975;47.872;12.972;2024-02-26T00:02:39;4.72;;;4.00;;
21626;SDS011;10975;47.872;12.972;2024-02-26T00:05:07;2.78;;;2.58;;
21626;SDS011;10975;47.872;12.972;2024-02-26T00:07:37;3.25;;;3.05;;
21626;SDS011;10975;47.872;12.972;2024-02-26T00:10:05;3.25;;;3.05;;
21626;SDS011;10975;47.872;12.972;2024-02-26T00:12:32;3.90;;;3.60;;
21626;SDS011;10975;47.872;12.972;2024-02-26T00:14:59;4.00;;;3.70;;
21626;SDS011;10975;47.872;12.972;2024-02-26T00:17:26;4.20;;;2.97;;
21626;SDS011;10975;47.872;12.972;2024-02-26T00:19:53;3.90;;;2.95;;
21626;SDS011;10975;47.872;12.972;2024-02-26T00:22:20;2.70;;;2.50;;
21626;SDS011;10975;47.872;12.972;2024-02-26T00:24:48;2.50;;;2.00;;
21626;SDS011;10975;47.872;12.972;2024-02-26T00:27:15;1.63;;;1.52;;
21626;SDS011;10975;47.872;12.972;2024-02-26T00:29:42;0.98;;;0.98;;
21626;SDS011;10975;47.872;12.972;2024-02-26T00:32:09;1.23;;;1.10;;
21626;SDS011;10975;47.872;12.972;2024-02-26T00:34:35;1.15;;;1.05;;
21626;SDS011;10975;47.872;12.972;2024-02-26T00:37:02;1.50;;;1.25;;
21626;SDS011;10975;47.872;12.972;2024-02-26T00:39:29;2.00;;;1.60;;
21626;SDS011;10975;47.872;12.972;2024-02-26T00:41:56;3.65;;;2.70;;
21626;SDS011;10975;47.872;12.972;2024-02-26T00:44:23;13.02;;;8.70;;
21626;SDS011;10975;47.872;12.972;2024-02-26T00:46:50;4.88;;;3.75;;
21626;SDS011;10975;47.872;12.972;2024-02-26T00:49:18;3.65;;;3.25;;
21626;SDS011;10975;47.872;12.972;2024-02-26T00:51:45;1.75;;;1.65;;
21626;SDS011;10975;47.872;12.972;2024-02-26T00:54:12;1.40;;;1.20;;
21626;SDS011;10975;47.872;12.972;2024-02-26T00:56:39;2.30;;;2.10;;
21626;SDS011;10975;47.872;12.972;2024-02-26T00:59:06;5.55;;;4.70;;
21626;SDS011;10975;47.872;12.972;2024-02-26T01:01:33;4.80;;;3.97;;
21626;SDS011;10975;47.872;12.972;2024-02-26T01:04:00;4.80;;;4.05;;
21626;SDS011;10975;47.872;12.972;2024-02-26T01:06:27;5.00;;;2.30;;
21626;SDS011;10975;47.872;12.972;2024-02-26T01:08:54;2.88;;;2.67;;
21626;SDS011;10975;47.872;12.972;2024-02-26T01:11:20;3.53;;;2.13;;
21626;SDS011;10975;47.872;12.972;2024-02-26T01:13:47;4.35;;;3.00;;
21626;SDS011;10975;47.872;12.972;2024-02-26T01:16:14;7.25;;;5.50;;
21626;SDS011;10975;47.872;12.972;2024-02-26T01:18:41;4.00;;;3.10;;
21626;SDS011;10975;47.872;12.972;2024-02-26T01:21:08;3.72;;;2.85;;
21626;SDS011;10975;47.872;12.972;2024-02-26T01:23:35;2.17;;;1.60;;
21626;SDS011;10975;47.872;12.972;2024-02-26T01:26:02;2.13;;;1.85;;
21626;SDS011;10975;47.872;12.972;2024-02-26T01:28:30;1.20;;;1.10;;
21626;SDS011;10975;47.872;12.972;2024-02-26T01:30:57;1.50;;;1.40;;
21626;SDS011;10975;47.872;12.972;2024-02-26T01:33:26;2.30;;;1.27;;
21626;SDS011;10975;47.872;12.972;2024-02-26T01:35:53;6.03;;;3.85;;
21626;SDS011;10975;47.872;12.972;2024-02-26T01:38:20;11.68;;;7.78;;
21626;SDS011;10975;47.872;12.972;2024-02-26T01:40:47;7.78;;;5.85;;
21626;SDS011;10975;47.872;12.972;2024-02-26T01:43:13;2.78;;;2.25;;
21626;SDS011;10975;47.872;12.972;2024-02-26T01:45:40;4.15;;;3.10;;
21626;SDS011;10975;47.872;12.972;2024-02-26T01:48:07;2.65;;;2.17;;
21626;SDS011;10975;47.872;12.972;2024-02-26T01:50:34;2.28;;;1.70;;
21626;SDS011;10975;47.872;12.972;2024-02-26T01:53:02;1.65;;;1.40;;
21626;SDS011;10975;47.872;12.972;2024-02-26T01:55:30;1.20;;;1.20;;
21626;SDS011;10975;47.872;12.972;2024-02-26T01:57:57;1.77;;;1.30;;
21626;SDS011;10975;47.872;12.972;2024-02-26T02:00:24;0.95;;;0.90;;
21626;SDS011;10975;47.872;12.972;2024-02-26T02:02:54;8.73;;;4.95;;
21626;SDS011;10975;47.872;12.972;2024-02-26T02:05:21;59.53;;;22.02;;
21626;SDS011;10975;47.872;12.972;2024-02-26T02:07:49;28.95;;;10.93;;
21626;SDS011;10975;47.872;12.972;2024-02-26T02:10:16;19.73;;;9.18;;
21626;SDS011;10975;47.872;12.972;2024-02-26T02:12:47;8.00;;;4.17;;
21626;SDS011;10975;47.872;12.972;2024-02-26T02:15:13;3.22;;;1.90;;
21626;SDS011;10975;47.872;12.972;2024-02-26T02:17:40;2.42;;;1.70;;
21626;SDS011;10975;47.872;12.972;2024-02-26T02:20:08;0.93;;;0.85;;
21626;SDS011;10975;47.872;12.972;2024-02-26T02:22:36;2.95;;;1.10;;
21626;SDS011;10975;47.872;12.972;2024-02-26T02:25:03;2.38;;;1.17;;
21626;SDS011;10975;47.872;12.972;2024-02-26T02:27:30;1.40;;;1.10;;
21626;SDS011;10975;47.872;12.972;2024-02-26T02:29:57;2.75;;;1.35;;
21626;SDS011;10975;47.872;12.972;2024-02-26T02:32:24;1.88;;;1.27;;
21626;SDS011;10975;47.872;12.972;2024-02-26T02:34:52;1.58;;;1.25;;
21626;SDS011;10975;47.872;12.972;2024-02-26T02:37:22;1.20;;;1.10;;
21626;SDS011;10975;47.872;12.972;2024-02-26T02:39:49;1.67;;;1.30;;
21626;SDS011;10975;47.872;12.972;2024-02-26T02:42:16;1.55;;;1.02;;
21626;SDS011;10975;47.872;12.972;2024-02-26T02:44:43;1.60;;;1.20;;
21626;SDS011;10975;47.872;12.972;2024-02-26T02:47:11;1.20;;;1.10;;
21626;SDS011;10975;47.872;12.972;2024-02-26T02:49:38;1.63;;;1.10;;
21626;SDS011;10975;47.872;12.972;2024-02-26T02:52:05;1.10;;;0.95;;
21626;SDS011;10975;47.872;12.972;2024-02-26T02:54:32;1.50;;;1.10;;
21626;SDS011;10975;47.872;12.972;2024-02-26T02:56:59;1.52;;;1.10;;
21626;SDS011;10975;47.872;12.972;2024-02-26T02:59:25;1.60;;;1.10;;
21626;SDS011;10975;47.872;12.972;2024-02-26T03:01:53;1.00;;;1.00;;
21626;SDS011;10975;47.872;12.972;2024-02-26T03:04:19;1.10;;;1.00;;
21626;SDS011;10975;47.872;12.972;2024-02-26T03:06:46;1.15;;;1.05;;
21626;SDS011;10975;47.872;12.972;2024-02-26T03:09:13;1.48;;;1.25;;
21626;SDS011;10975;47.872;12.972;2024-02-26T03:11:40;5.53;;;1.40;;
21626;SDS011;10975;47.872;12.972;2024-02-26T03:14:07;1.80;;;1.40;;
21626;SDS011;10975;47.872;12.972;2024-02-26T03:16:35;1.50;;;1.20;;
21626;SDS011;10975;47.872;12.972;2024-02-26T03:19:02;1.25;;;0.90;;
21626;SDS011;10975;47.872;12.972;2024-02-26T03:21:29;1.08;;;0.90;;
21626;SDS011;10975;47.872;12.972;2024-02-26T03:23:56;1.45;;;1.15;;
21626;SDS011;10975;47.872;12.972;2024-02-26T03:26:23;1.10;;;1.00;;
21626;SDS011;10975;47.872;12.972;2024-02-26T03:28:50;2.15;;;0.90;;
21626;SDS011;10975;47.872;12.972;2024-02-26T03:31:17;1.75;;;0.90;;
21626;SDS011;10975;47.872;12.972;2024-02-26T03:33:44;0.60;;;0.60;;
21626;SDS011;10975;47.872;12.972;2024-02-26T03:36:11;1.52;;;0.90;;
21626;SDS011;10975;47.872;12.972;2024-02-26T03:38:38;1.80;;;1.00;;
21626;SDS011;10975;47.872;12.972;2024-02-26T03:41:05;1.42;;;1.00;;
21626;SDS011;10975;47.872;12.972;2024-02-26T03:43:32;2.05;;;1.23;;
21626;SDS011;10975;47.872;12.972;2024-02-26T03:45:59;1.48;;;0.88;;
21626;SDS011;10975;47.872;12.972;2024-02-26T03:48:26;1.30;;;0.93;;
21626;SDS011;10975;47.872;12.972;2024-02-26T03:50:53;1.45;;;0.98;;
21626;SDS011;10975;47.872;12.972;2024-02-26T03:53:20;1.27;;;1.15;;
21626;SDS011;10975;47.872;12.972;2024-02-26T03:55:47;0.93;;;0.80;;
21626;SDS011;10975;47.872;12.972;2024-02-26T03:58:13;1.27;;;1.08;;
21626;SDS011;10975;47.872;12.972;2024-02-26T04:00:42;2.08;;;1.33;;
21626;SDS011;10975;47.872;12.972;2024-02-26T04:03:09;1.92;;;1.15;;
21626;SDS011;10975;47.872;12.972;2024-02-26T04:05:36;1.52;;;1.15;;
21626;SDS011;10975;47.872;12.972;2024-02-26T04:08:04;1.33;;;0.95;;
21626;SDS011;10975;47.872;12.972;2024-02-26T04:10:33;1.05;;;0.95;;
21626;SDS011;10975;47.872;12.972;2024-02-26T04:15:33;0.60;;;0.60;;
21626;SDS011;10975;47.872;12.972;2024-02-26T04:18:00;1.33;;;1.00;;
21626;SDS011;10975;47.872;12.972;2024-02-26T04:20:27;1.40;;;1.20;;
21626;SDS011;10975;47.872;12.972;2024-02-26T04:22:54;1.45;;;1.20;;
21626;SDS011;10975;47.872;12.972;2024-02-26T04:25:21;1.52;;;1.17;;
21626;SDS011;10975;47.872;12.972;2024-02-26T04:27:47;1.00;;;0.90;;
21626;SDS011;10975;47.872;12.972;2024-02-26T04:30:14;1.27;;;1.15;;
21626;SDS011;10975;47.872;12.972;2024-02-26T04:32:41;1.30;;;1.13;;
21626;SDS011;10975;47.872;12.972;2024-02-26T04:35:08;0.80;;;0.80;;
21626;SDS011;10975;47.872;12.972;2024-02-26T04:37:36;1.02;;;0.93;;
21626;SDS011;10975;47.872;12.972;2024-02-26T04:40:03;0.85;;;0.80;;
21626;SDS011;10975;47.872;12.972;2024-02-26T04:42:30;1.73;;;1.15;;
21626;SDS011;10975;47.872;12.972;2024-02-26T04:44:57;1.65;;;1.20;;
21626;SDS011;10975;47.872;12.972;2024-02-26T04:47:24;1.25;;;1.00;;
21626;SDS011;10975;47.872;12.972;2024-02-26T04:49:51;1.38;;;1.27;;
21626;SDS011;10975;47.872;12.972;2024-02-26T04:52:19;1.00;;;0.90;;
21626;SDS011;10975;47.872;12.972;2024-02-26T04:54:46;1.45;;;1.15;;
21626;SDS011;10975;47.872;12.972;2024-02-26T04:57:13;1.10;;;0.80;;
21626;SDS011;10975;47.872;12.972;2024-02-26T04:59:39;2.08;;;1.05;;
21626;SDS011;10975;47.872;12.972;2024-02-26T05:02:08;1.70;;;0.90;;
21626;SDS011;10975;47.872;12.972;2024-02-26T05:04:36;1.48;;;0.82;;
21626;SDS011;10975;47.872;12.972;2024-02-26T05:07:03;0.95;;;0.80;;
21626;SDS011;10975;47.872;12.972;2024-02-26T05:09:30;0.80;;;0.80;;
21626;SDS011;10975;47.872;12.972;2024-02-26T05:11:57;1.48;;;1.10;;
21626;SDS011;10975;47.872;12.972;2024-02-26T05:14:24;1.10;;;1.00;;
21626;SDS011;10975;47.872;12.972;2024-02-26T05:16:51;2.95;;;1.25;;
21626;SDS011;10975;47.872;12.972;2024-02-26T05:19:18;1.90;;;1.00;;
21626;SDS011;10975;47.872;12.972;2024-02-26T05:21:45;1.33;;;1.15;;
21626;SDS011;10975;47.872;12.972;2024-02-26T05:24:13;1.23;;;1.13;;
21626;SDS011;10975;47.872;12.972;2024-02-26T05:26:41;1.88;;;1.10;;
21626;SDS011;10975;47.872;12.972;2024-02-26T05:29:09;1.73;;;1.40;;
21626;SDS011;10975;47.872;12.972;2024-02-26T05:31:35;2.33;;;1.42;;
21626;SDS011;10975;47.872;12.972;2024-02-26T05:34:02;1.75;;;1.40;;
21626;SDS011;10975;47.872;12.972;2024-02-26T05:36:29;1.42;;;1.17;;
21626;SDS011;10975;47.872;12.972;2024-02-26T05:39:00;1.90;;;1.45;;
21626;SDS011;10975;47.872;12.972;2024-02-26T05:41:27;1.25;;;1.15;;
21626;SDS011;10975;47.872;12.972;2024-02-26T05:43:54;1.50;;;1.40;;
21626;SDS011;10975;47.872;12.972;2024-02-26T05:46:21;1.23;;;1.13;;
21626;SDS011;10975;47.872;12.972;2024-02-26T05:48:52;1.90;;;1.58;;
21626;SDS011;10975;47.872;12.972;2024-02-26T05:51:19;1.42;;;1.33;;
21626;SDS011;10975;47.872;12.972;2024-02-26T05:53:46;1.17;;;1.08;;
21626;SDS011;10975;47.872;12.972;2024-02-26T05:56:14;1.35;;;1.02;;
21626;SDS011;10975;47.872;12.972;2024-02-26T05:58:40;2.05;;;1.27;;
21626;SDS011;10975;47.872;12.972;2024-02-26T06:01:07;1.50;;;1.40;;
21626;SDS011;10975;47.872;12.972;2024-02-26T06:03:34;2.47;;;2.05;;
21626;SDS011;10975;47.872;12.972;2024-02-26T06:06:01;3.17;;;1.95;;
21626;SDS011;10975;47.872;12.972;2024-02-26T06:08:28;1.92;;;1.70;;
21626;SDS011;10975;47.872;12.972;2024-02-26T06:10:55;1.80;;;1.70;;
21626;SDS011;10975;47.872;12.972;2024-02-26T06:13:22;3.15;;;2.28;;
21626;SDS011;10975;47.872;12.972;2024-02-26T06:15:48;1.98;;;1.88;;
21626;SDS011;10975;47.872;12.972;2024-02-26T06:18:18;3.55;;;2.10;;
21626;SDS011;10975;47.872;12.972;2024-02-26T06:20:45;4.03;;;2.25;;
21626;SDS011;10975;47.872;12.972;2024-02-26T06:23:12;2.38;;;2.13;;
21626;SDS011;10975;47.872;12.972;2024-02-26T06:25:39;2.17;;;1.83;;
21626;SDS011;10975;47.872;12.972;2024-02-26T06:28:08;2.30;;;2.03;;
21626;SDS011;10975;47.872;12.972;2024-02-26T06:30:35;2.45;;;2.25;;
21626;SDS011;10975;47.872;12.972;2024-02-26T06:33:02;4.22;;;2.47;;
21626;SDS011;10975;47.872;12.972;2024-02-26T06:35:29;3.40;;;2.67;;
21626;SDS011;10975;47.872;12.972;2024-02-26T06:37:56;4.05;;;2.90;;
21626;SDS011;10975;47.872;12.972;2024-02-26T06:40:23;3.45;;;2.33;;
21626;SDS011;10975;47.872;12.972;2024-02-26T06:42:50;4.45;;;2.60;;
21626;SDS011;10975;47.872;12.972;2024-02-26T06:45:17;3.17;;;2.80;;
21626;SDS011;10975;47.872;12.972;2024-02-26T06:47:45;3.00;;;2.70;;
21626;SDS011;10975;47.872;12.972;2024-02-26T06:50:13;3.15;;;2.50;;
21626;SDS011;10975;47.872;12.972;2024-02-26T06:52:40;3.60;;;2.63;;
21626;SDS011;10975;47.872;12.972;2024-02-26T06:55:06;2.90;;;2.63;;
21626;SDS011;10975;47.872;12.972;2024-02-26T06:57:35;3.47;;;2.75;;
21626;SDS011;10975;47.872;12.972;2024-02-26T07:00:02;4.82;;;3.13;;
21626;SDS011;10975;47.872;12.972;2024-02-26T07:02:30;2.75;;;2.53;;
21626;SDS011;10975;47.872;12.972;2024-02-26T07:04:57;3.42;;;2.83;;
21626;SDS011;10975;47.872;12.972;2024-02-26T07:07:24;5.25;;;2.85;;
21626;SDS011;10975;47.872;12.972;2024-02-26T07:09:52;4.35;;;2.70;;
21626;SDS011;10975;47.872;12.972;2024-02-26T07:12:19;2.90;;;2.42;;
21626;SDS011;10975;47.872;12.972;2024-02-26T07:14:48;4.70;;;2.70;;
21626;SDS011;10975;47.872;12.972;2024-02-26T07:17:15;4.20;;;2.58;;
21626;SDS011;10975;47.872;12.972;2024-02-26T07:19:43;6.95;;;2.70;;
21626;SDS011;10975;47.872;12.972;2024-02-26T07:22:09;2.55;;;2.25;;
21626;SDS011;10975;47.872;12.972;2024-02-26T07:24:36;3.60;;;2.22;;
21626;SDS011;10975;47.872;12.972;2024-02-26T07:27:03;2.67;;;2.17;;
21626;SDS011;10975;47.872;12.972;2024-02-26T07:29:30;5.82;;;2.30;;
21626;SDS011;10975;47.872;12.972;2024-02-26T07:31:57;2.63;;;2.03;;
21626;SDS011;10975;47.872;12.972;2024-02-26T07:34:24;2.33;;;2.00;;
21626;SDS011;10975;47.872;12.972;2024-02-26T07:36:56;3.63;;;1.90;;
21626;SDS011;10975;47.872;12.972;2024-02-26T07:39:23;3.55;;;1.88;;
21626;SDS011;10975;47.872;12.972;2024-02-26T07:41:50;4.22;;;2.30;;
21626;SDS011;10975;47.872;12.972;2024-02-26T07:44:18;3.22;;;2.08;;
21626;SDS011;10975;47.872;12.972;2024-02-26T07:46:46;2.97;;;1.98;;
21626;SDS011;10975;47.872;12.972;2024-02-26T07:49:13;3.03;;;2.22;;
21626;SDS011;10975;47.872;12.972;2024-02-26T07:51:40;3.72;;;2.00;;
21626;SDS011;10975;47.872;12.972;2024-02-26T07:54:07;2.15;;;1.95;;
21626;SDS011;10975;47.872;12.972;2024-02-26T07:56:34;2.15;;;1.92;;
21626;SDS011;10975;47.872;12.972;2024-02-26T07:59:01;1.70;;;1.60;;
21626;SDS011;10975;47.872;12.972;2024-02-26T08:01:27;2.05;;;1.85;;
21626;SDS011;10975;47.872;12.972;2024-02-26T08:03:54;2.85;;;1.95;;
21626;SDS011;10975;47.872;12.972;2024-02-26T08:06:22;2.85;;;1.65;;
21626;SDS011;10975;47.872;12.972;2024-02-26T08:08:49;1.60;;;1.50;;
21626;SDS011;10975;47.872;12.972;2024-02-26T08:11:16;2.58;;;1.90;;
21626;SDS011;10975;47.872;12.972;2024-02-26T08:13:43;2.85;;;1.65;;
21626;SDS011;10975;47.872;12.972;2024-02-26T08:16:10;3.25;;;1.88;;
21626;SDS011;10975;47.872;12.972;2024-02-26T08:18:38;3.42;;;1.60;;
21626;SDS011;10975;47.872;12.972;2024-02-26T08:21:05;3.28;;;2.00;;
21626;SDS011;10975;47.872;12.972;2024-02-26T08:23:32;4.07;;;1.73;;
21626;SDS011;10975;47.872;12.972;2024-02-26T08:25:59;2.00;;;1.70;;
21626;SDS011;10975;47.872;12.972;2024-02-26T08:28:26;2.20;;;1.73;;
21626;SDS011;10975;47.872;12.972;2024-02-26T08:30:53;1.73;;;1.38;;
21626;SDS011;10975;47.872;12.972;2024-02-26T08:33:20;1.50;;;1.38;;
21626;SDS011;10975;47.872;12.972;2024-02-26T08:35:46;2.13;;;1.30;;
21626;SDS011;10975;47.872;12.972;2024-02-26T08:38:13;1.15;;;0.90;;
21626;SDS011;10975;47.872;12.972;2024-02-26T08:40:41;1.10;;;0.90;;
21626;SDS011;10975;47.872;12.972;2024-02-26T08:43:08;1.48;;;0.60;;
21626;SDS011;10975;47.872;12.972;2024-02-26T08:45:36;0.55;;;0.40;;
21626;SDS011;10975;47.872;12.972;2024-02-26T08:48:03;1.50;;;0.50;;
21626;SDS011;10975;47.872;12.972;2024-02-26T08:50:30;1.60;;;0.77;;
21626;SDS011;10975;47.872;12.972;2024-02-26T08:52:57;0.88;;;0.57;;
21626;SDS011;10975;47.872;12.972;2024-02-26T08:55:25;0.55;;;0.40;;
21626;SDS011;10975;47.872;12.972;2024-02-26T08:57:51;0.93;;;0.55;;
21626;SDS011;10975;47.872;12.972;2024-02-26T09:00:18;0.80;;;0.60;;
21626;SDS011;10975;47.872;12.972;2024-02-26T09:02:48;1.08;;;0.50;;
21626;SDS011;10975;47.872;12.972;2024-02-26T09:05:16;0.90;;;0.60;;
21626;SDS011;10975;47.872;12.972;2024-02-26T09:07:43;1.02;;;0.50;;
21626;SDS011;10975;47.872;12.972;2024-02-26T09:10:10;3.00;;;0.98;;
21626;SDS011;10975;47.872;12.972;2024-02-26T09:12:37;1.85;;;0.85;;
21626;SDS011;10975;47.872;12.972;2024-02-26T09:15:06;2.65;;;0.60;;
21626;SDS011;10975;47.872;12.972;2024-02-26T09:17:33;0.55;;;0.50;;
21626;SDS011;10975;47.872;12.972;2024-02-26T09:20:01;1.88;;;0.70;;
21626;SDS011;10975;47.872;12.972;2024-02-26T09:22:29;1.10;;;0.60;;
21626;SDS011;10975;47.872;12.972;2024-02-26T09:24:55;1.40;;;0.60;;
21626;SDS011;10975;47.872;12.972;2024-02-26T09:27:22;0.32;;;0.32;;
21626;SDS011;10975;47.872;12.972;2024-02-26T09:29:50;1.15;;;0.40;;
21626;SDS011;10975;47.872;12.972;2024-02-26T09:32:17;0.50;;;0.40;;
21626;SDS011;10975;47.872;12.972;2024-02-26T09:34:44;3.45;;;0.65;;
21626;SDS011;10975;47.872;12.972;2024-02-26T09:37:11;0.73;;;0.60;;
21626;SDS011;10975;47.872;12.972;2024-02-26T09:39:47;1.52;;;0.75;;
21626;SDS011;10975;47.872;12.972;2024-02-26T09:42:14;1.20;;;0.47;;
21626;SDS011;10975;47.872;12.972;2024-02-26T09:44:45;0.60;;;0.40;;
21626;SDS011;10975;47.872;12.972;2024-02-26T09:47:14;0.60;;;0.60;;
21626;SDS011;10975;47.872;12.972;2024-02-26T09:49:43;0.52;;;0.52;;
21626;SDS011;10975;47.872;12.972;2024-02-26T09:52:10;1.40;;;0.52;;
21626;SDS011;10975;47.872;12.972;2024-02-26T09:54:38;1.65;;;0.40;;
21626;SDS011;10975;47.872;12.972;2024-02-26T09:57:06;5.35;;;0.95;;
21626;SDS011;10975;47.872;12.972;2024-02-26T09:59:41;0.85;;;0.43;;
21626;SDS011;10975;47.872;12.972;2024-02-26T10:02:13;1.60;;;0.47;;
21626;SDS011;10975;47.872;12.972;2024-02-26T10:04:40;2.17;;;0.50;;
21626;SDS011;10975;47.872;12.972;2024-02-26T10:07:14;0.30;;;0.30;;
21626;SDS011;10975;47.872;12.972;2024-02-26T10:09:41;2.25;;;0.60;;
21626;SDS011;10975;47.872;12.972;2024-02-26T10:12:11;0.43;;;0.40;;
21626;SDS011;10975;47.872;12.972;2024-02-26T10:14:38;0.50;;;0.40;;
21626;SDS011;10975;47.872;12.972;2024-02-26T10:17:08;4.45;;;0.90;;
21626;SDS011;10975;47.872;12.972;2024-02-26T10:19:35;0.50;;;0.38;;
21626;SDS011;10975;47.872;12.972;2024-02-26T10:22:04;1.08;;;0.50;;
21626;SDS011;10975;47.872;12.972;2024-02-26T10:24:32;0.70;;;0.50;;
21626;SDS011;10975;47.872;12.972;2024-02-26T10:26:59;0.40;;;0.40;;
21626;SDS011;10975;47.872;12.972;2024-02-26T10:29:26;0.85;;;0.45;;
21626;SDS011;10975;47.872;12.972;2024-02-26T10:31:53;0.47;;;0.38;;
21626;SDS011;10975;47.872;12.972;2024-02-26T10:34:20;0.60;;;0.40;;
21626;SDS011;10975;47.872;12.972;2024-02-26T10:36:47;0.55;;;0.40;;
21626;SDS011;10975;47.872;12.972;2024-02-26T10:39:19;0.43;;;0.20;;
21626;SDS011;10975;47.872;12.972;2024-02-26T10:41:48;0.40;;;0.40;;
21626;SDS011;10975;47.872;12.972;2024-02-26T10:44:15;0.35;;;0.30;;
21626;SDS011;10975;47.872;12.972;2024-02-26T10:46:45;0.28;;;0.20;;
21626;SDS011;10975;47.872;12.972;2024-02-26T10:49:16;1.05;;;0.30;;
21626;SDS011;10975;47.872;12.972;2024-02-26T10:51:51;1.13;;;0.40;;
21626;SDS011;10975;47.872;12.972;2024-02-26T10:54:21;1.13;;;0.30;;
21626;SDS011;10975;47.872;12.972;2024-02-26T10:56:50;0.75;;;0.40;;
21626;SDS011;10975;47.872;12.972;2024-02-26T10:59:17;0.68;;;0.25;;
21626;SDS011;10975;47.872;12.972;2024-02-26T11:01:47;0.40;;;0.40;;
21626;SDS011;10975;47.872;12.972;2024-02-26T11:04:16;1.00;;;0.30;;
21626;SDS011;10975;47.872;12.972;2024-02-26T11:06:44;1.70;;;0.40;;
21626;SDS011;10975;47.872;12.972;2024-02-26T11:09:15;0.60;;;0.40;;
21626;SDS011;10975;47.872;12.972;2024-02-26T11:11:43;3.00;;;0.57;;
21626;SDS011;10975;47.872;12.972;2024-02-26T11:14:10;0.40;;;0.30;;
21626;SDS011;10975;47.872;12.972;2024-02-26T11:16:39;0.30;;;0.30;;
21626;SDS011;10975;47.872;12.972;2024-02-26T11:19:09;0.50;;;0.50;;
21626;SDS011;10975;47.872;12.972;2024-02-26T11:21:37;2.03;;;0.40;;
21626;SDS011;10975;47.872;12.972;2024-02-26T11:24:09;1.77;;;0.50;;
21626;SDS011;10975;47.872;12.972;2024-02-26T11:26:50;1.23;;;0.50;;
21626;SDS011;10975;47.872;12.972;2024-02-26T11:29:49;0.50;;;0.40;;
21626;SDS011;10975;47.872;12.972;2024-02-26T11:32:18;1.13;;;0.50;;
21626;SDS011;10975;47.872;12.972;2024-02-26T11:34:45;3.47;;;1.33;;
21626;SDS011;10975;47.872;12.972;2024-02-26T11:37:16;0.52;;;0.30;;
21626;SDS011;10975;47.872;12.972;2024-02-26T11:39:44;2.97;;;0.50;;
21626;SDS011;10975;47.872;12.972;2024-02-26T11:42:15;0.30;;;0.30;;
21626;SDS011;10975;47.872;12.972;2024-02-26T11:44:42;1.20;;;0.82;;
21626;SDS011;10975;47.872;12.972;2024-02-26T11:47:10;1.15;;;0.60;;
21626;SDS011;10975;47.872;12.972;2024-02-26T11:49:37;0.73;;;0.50;;
21626;SDS011;10975;47.872;12.972;2024-02-26T11:52:08;1.17;;;0.70;;
21626;SDS011;10975;47.872;12.972;2024-02-26T11:54:53;1.10;;;0.57;;
21626;SDS011;10975;47.872;12.972;2024-02-26T11:57:23;1.42;;;0.68;;
21626;SDS011;10975;47.872;12.972;2024-02-26T12:05:24;1.00;;;0.50;;
21626;SDS011;10975;47.872;12.972;2024-02-26T12:07:53;4.32;;;0.93;;
21626;SDS011;10975;47.872;12.972;2024-02-26T12:12:53;0.88;;;0.40;;
21626;SDS011;10975;47.872;12.972;2024-02-26T12:15:22;1.40;;;0.50;;
21626;SDS011;10975;47.872;12.972;2024-02-26T12:17:49;1.10;;;0.60;;
21626;SDS011;10975;47.872;12.972;2024-02-26T12:20:17;2.53;;;0.98;;
21626;SDS011;10975;47.872;12.972;2024-02-26T12:22:46;0.90;;;0.55;;
21626;SDS011;10975;47.872;12.972;2024-02-26T12:25:15;0.63;;;0.50;;
21626;SDS011;10975;47.872;12.972;2024-02-26T12:27:42;0.77;;;0.70;;
21626;SDS011;10975;47.872;12.972;2024-02-26T12:30:09;1.67;;;0.60;;
21626;SDS011;10975;47.872;12.972;2024-02-26T12:32:37;1.48;;;0.60;;
21626;SDS011;10975;47.872;12.972;2024-02-26T12:35:04;3.25;;;1.02;;
21626;SDS011;10975;47.872;12.972;2024-02-26T12:37:32;0.80;;;0.60;;
21626;SDS011;10975;47.872;12.972;2024-02-26T12:39:59;2.70;;;0.82;;
21626;SDS011;10975;47.872;12.972;2024-02-26T12:42:26;2.70;;;0.55;;
21626;SDS011;10975;47.872;12.972;2024-02-26T12:44:53;2.20;;;0.82;;
21626;SDS011;10975;47.872;12.972;2024-02-26T12:47:20;2.28;;;0.80;;
21626;SDS011;10975;47.872;12.972;2024-02-26T12:49:47;1.13;;;0.70;;
21626;SDS011;10975;47.872;12.972;2024-02-26T12:52:16;1.75;;;0.73;;
21626;SDS011;10975;47.872;12.972;2024-02-26T12:54:43;1.92;;;0.90;;
21626;SDS011;10975;47.872;12.972;2024-02-26T12:57:11;0.93;;;0.70;;
21626;SDS011;10975;47.872;12.972;2024-02-26T12:59:38;0.82;;;0.63;;
21626;SDS011;10975;47.872;12.972;2024-02-26T13:02:05;2.25;;;0.70;;
21626;SDS011;10975;47.872;12.972;2024-02-26T13:04:33;1.55;;;0.55;;
21626;SDS011;10975;47.872;12.972;2024-02-26T13:07:14;3.28;;;0.50;;
21626;SDS011;10975;47.872;12.972;2024-02-26T13:09:41;1.75;;;0.55;;
21626;SDS011;10975;47.872;12.972;2024-02-26T13:12:08;8.15;;;0.70;;
21626;SDS011;10975;47.872;12.972;2024-02-26T13:14:35;0.93;;;0.65;;
21626;SDS011;10975;47.872;12.972;2024-02-26T13:17:02;0.60;;;0.50;;
21626;SDS011;10975;47.872;12.972;2024-02-26T13:19:29;3.58;;;0.60;;
21626;SDS011;10975;47.872;12.972;2024-02-26T13:22:03;0.73;;;0.40;;
21626;SDS011;10975;47.872;12.972;2024-02-26T13:24:31;0.65;;;0.50;;
21626;SDS011;10975;47.872;12.972;2024-02-26T13:26:59;1.13;;;0.80;;
21626;SDS011;10975;47.872;12.972;2024-02-26T13:29:27;2.65;;;0.82;;
21626;SDS011;10975;47.872;12.972;2024-02-26T13:31:55;0.88;;;0.80;;
21626;SDS011;10975;47.872;12.972;2024-02-26T13:34:25;0.80;;;0.80;;
21626;SDS011;10975;47.872;12.972;2024-02-26T13:36:57;0.80;;;0.80;;
21626;SDS011;10975;47.872;12.972;2024-02-26T13:39:24;1.08;;;0.98;;
21626;SDS011;10975;47.872;12.972;2024-02-26T13:41:53;1.10;;;0.80;;
21626;SDS011;10975;47.872;12.972;2024-02-26T13:44:20;2.20;;;1.00;;
21626;SDS011;10975;47.872;12.972;2024-02-26T13:46:48;0.60;;;0.60;;
21626;SDS011;10975;47.872;12.972;2024-02-26T13:49:15;2.80;;;0.68;;
21626;SDS011;10975;47.872;12.972;2024-02-26T13:51:42;2.22;;;0.88;;
21626;SDS011;10975;47.872;12.972;2024-02-26T13:54:09;3.72;;;0.73;;
21626;SDS011;10975;47.872;12.972;2024-02-26T13:56:37;1.13;;;0.60;;
21626;SDS011;10975;47.872;12.972;2024-02-26T13:59:04;1.08;;;0.95;;
21626;SDS011;10975;47.872;12.972;2024-02-26T14:01:31;0.95;;;0.80;;
21626;SDS011;10975;47.872;12.972;2024-02-26T14:03:59;6.28;;;1.00;;
21626;SDS011;10975;47.872;12.972;2024-02-26T14:06:28;3.90;;;0.98;;
21626;SDS011;10975;47.872;12.972;2024-02-26T14:08:57;1.70;;;0.80;;
21626;SDS011;10975;47.872;12.972;2024-02-26T14:11:24;0.88;;;0.70;;
21626;SDS011;10975;47.872;12.972;2024-02-26T14:13:51;1.00;;;0.80;;
21626;SDS011;10975;47.872;12.972;2024-02-26T14:16:18;2.10;;;0.90;;
21626;SDS011;10975;47.872;12.972;2024-02-26T14:18:46;0.60;;;0.60;;
21626;SDS011;10975;47.872;12.972;2024-02-26T14:21:13;0.80;;;0.80;;
21626;SDS011;10975;47.872;12.972;2024-02-26T14:23:41;1.20;;;0.88;;
21626;SDS011;10975;47.872;12.972;2024-02-26T14:26:09;1.52;;;0.90;;
21626;SDS011;10975;47.872;12.972;2024-02-26T14:28:36;1.20;;;0.95;;
21626;SDS011;10975;47.872;12.972;2024-02-26T14:31:03;2.28;;;1.05;;
21626;SDS011;10975;47.872;12.972;2024-02-26T14:33:32;2.25;;;1.15;;
21626;SDS011;10975;47.872;12.972;2024-02-26T14:35:59;1.95;;;1.27;;
21626;SDS011;10975;47.872;12.972;2024-02-26T14:38:26;2.10;;;1.00;;
21626;SDS011;10975;47.872;12.972;2024-02-26T14:40:52;1.23;;;1.13;;
21626;SDS011;10975;47.872;12.972;2024-02-26T14:43:19;1.38;;;0.90;;
21626;SDS011;10975;47.872;12.972;2024-02-26T14:45:46;2.90;;;1.20;;